sensor_id;sensor_type;location;lat;lon;timestamp;P1;durP1;ratioP1;P2;durP2;ratioP2
78648;SDS011;67962;47.310;9.642;2023-05-10T00:02:11;11.85;;;0.60;;
78648;SDS011;67962;47.310;9.642;2023-05-10T00:04:36;1.80;;;0.40;;
78648;SDS011;67962;47.310;9.642;2023-05-10T00:07:02;1.27;;;0.30;;
78648;SDS011;67962;47.310;9.642;2023-05-10T00:09:27;0.30;;;0.20;;
78648;SDS011;67962;47.310;9.642;2023-05-10T00:11:53;2.83;;;0.50;;
78648;SDS011;67962;47.310;9.642;2023-05-10T00:14:19;6.82;;;0.50;;
78648;SDS011;67962;47.310;9.642;2023-05-10T00:16:45;9.93;;;0.75;;
78648;SDS011;67962;47.310;9.642;2023-05-10T00:19:10;8.25;;;0.77;;
78648;SDS011;67962;47.310;9.642;2023-05-10T00:21:36;0.50;;;0.30;;
78648;SDS011;67962;47.310;9.642;2023-05-10T00:24:02;0.30;;;0.20;;
78648;SDS011;67962;47.310;9.642;2023-05-10T00:26:27;0.22;;;0.20;;
78648;SDS011;67962;47.310;9.642;2023-05-10T00:28:53;0.30;;;0.30;;
78648;SDS011;67962;47.310;9.642;2023-05-10T00:31:19;2.05;;;0.30;;
78648;SDS011;67962;47.310;9.642;2023-05-10T00:33:45;13.90;;;0.70;;
78648;SDS011;67962;47.310;9.642;2023-05-10T00:36:11;2.45;;;0.30;;
78648;SDS011;67962;47.310;9.642;2023-05-10T00:38:36;1.45;;;0.22;;
78648;SDS011;67962;47.310;9.642;2023-05-10T00:41:03;3.03;;;0.30;;
78648;SDS011;67962;47.310;9.642;2023-05-10T00:43:28;4.35;;;0.43;;
78648;SDS011;67962;47.310;9.642;2023-05-10T00:45:54;0.30;;;0.30;;
78648;SDS011;67962;47.310;9.642;2023-05-10T00:48:20;1.95;;;0.30;;
78648;SDS011;67962;47.310;9.642;2023-05-10T00:50:46;0.90;;;0.30;;
78648;SDS011;67962;47.310;9.642;2023-05-10T00:53:12;1.15;;;0.40;;
78648;SDS011;67962;47.310;9.642;2023-05-10T00:55:39;0.40;;;0.20;;
78648;SDS011;67962;47.310;9.642;2023-05-10T00:58:05;0.60;;;0.20;;
78648;SDS011;67962;47.310;9.642;2023-05-10T01:00:32;0.70;;;0.40;;
78648;SDS011;67962;47.310;9.642;2023-05-10T01:02:58;1.92;;;0.40;;
78648;SDS011;67962;47.310;9.642;2023-05-10T01:05:24;0.30;;;0.30;;
78648;SDS011;67962;47.310;9.642;2023-05-10T01:07:52;0.57;;;0.30;;
78648;SDS011;67962;47.310;9.642;2023-05-10T01:10:17;4.20;;;0.40;;
78648;SDS011;67962;47.310;9.642;2023-05-10T01:12:44;0.60;;;0.30;;
78648;SDS011;67962;47.310;9.642;2023-05-10T01:15:11;0.47;;;0.38;;
78648;SDS011;67962;47.310;9.642;2023-05-10T01:17:39;0.50;;;0.40;;
78648;SDS011;67962;47.310;9.642;2023-05-10T01:20:07;1.77;;;0.35;;
78648;SDS011;67962;47.310;9.642;2023-05-10T01:25:32;1.35;;;0.50;;
78648;SDS011;67962;47.310;9.642;2023-05-10T01:35:56;0.32;;;0.30;;
78648;SDS011;67962;47.310;9.642;2023-05-10T01:44:01;0.30;;;0.30;;
78648;SDS011;67962;47.310;9.642;2023-05-10T01:46:52;0.88;;;0.30;;
78648;SDS011;67962;47.310;9.642;2023-05-10T01:49:25;0.40;;;0.32;;
78648;SDS011;67962;47.310;9.642;2023-05-10T01:51:55;0.60;;;0.40;;
78648;SDS011;67962;47.310;9.642;2023-05-10T01:54:34;3.15;;;0.20;;
78648;SDS011;67962;47.310;9.642;2023-05-10T01:57:03;0.50;;;0.30;;
78648;SDS011;67962;47.310;9.642;2023-05-10T01:59:34;0.90;;;0.40;;
78648;SDS011;67962;47.310;9.642;2023-05-10T02:02:02;0.43;;;0.30;;
78648;SDS011;67962;47.310;9.642;2023-05-10T02:04:29;0.30;;;0.30;;
78648;SDS011;67962;47.310;9.642;2023-05-10T02:06:56;0.40;;;0.20;;
78648;SDS011;67962;47.310;9.642;2023-05-10T02:09:22;2.75;;;0.32;;
78648;SDS011;67962;47.310;9.642;2023-05-10T02:11:50;0.45;;;0.20;;
78648;SDS011;67962;47.310;9.642;2023-05-10T02:14:17;0.50;;;0.30;;
78648;SDS011;67962;47.310;9.642;2023-05-10T02:16:44;1.02;;;0.30;;
78648;SDS011;67962;47.310;9.642;2023-05-10T02:19:12;0.30;;;0.30;;
78648;SDS011;67962;47.310;9.642;2023-05-10T02:21:40;0.60;;;0.28;;
78648;SDS011;67962;47.310;9.642;2023-05-10T02:24:07;2.58;;;0.50;;
78648;SDS011;67962;47.310;9.642;2023-05-10T02:26:34;0.20;;;0.20;;
78648;SDS011;67962;47.310;9.642;2023-05-10T02:29:01;0.57;;;0.30;;
78648;SDS011;67962;47.310;9.642;2023-05-10T02:31:29;0.50;;;0.30;;
78648;SDS011;67962;47.310;9.642;2023-05-10T02:33:57;0.30;;;0.30;;
78648;SDS011;67962;47.310;9.642;2023-05-10T02:36:25;0.30;;;0.20;;
78648;SDS011;67962;47.310;9.642;2023-05-10T02:38:52;0.30;;;0.28;;
78648;SDS011;67962;47.310;9.642;2023-05-10T02:41:19;2.60;;;0.30;;
78648;SDS011;67962;47.310;9.642;2023-05-10T02:43:49;1.63;;;0.28;;
78648;SDS011;67962;47.310;9.642;2023-05-10T02:46:16;1.85;;;0.40;;
78648;SDS011;67962;47.310;9.642;2023-05-10T02:48:42;0.30;;;0.22;;
78648;SDS011;67962;47.310;9.642;2023-05-10T02:51:08;3.10;;;0.20;;
78648;SDS011;67962;47.310;9.642;2023-05-10T02:53:38;0.30;;;0.30;;
78648;SDS011;67962;47.310;9.642;2023-05-10T02:56:09;0.30;;;0.28;;
78648;SDS011;67962;47.310;9.642;2023-05-10T02:58:40;6.07;;;0.50;;
78648;SDS011;67962;47.310;9.642;2023-05-10T03:01:06;2.38;;;0.30;;
78648;SDS011;67962;47.310;9.642;2023-05-10T03:03:32;0.60;;;0.40;;
78648;SDS011;67962;47.310;9.642;2023-05-10T03:05:58;0.30;;;0.30;;
78648;SDS011;67962;47.310;9.642;2023-05-10T03:08:24;0.60;;;0.40;;
78648;SDS011;67962;47.310;9.642;2023-05-10T03:10:54;0.98;;;0.30;;
78648;SDS011;67962;47.310;9.642;2023-05-10T03:13:34;0.47;;;0.40;;
78648;SDS011;67962;47.310;9.642;2023-05-10T03:16:07;0.70;;;0.57;;
78648;SDS011;67962;47.310;9.642;2023-05-10T03:18:42;0.60;;;0.40;;
78648;SDS011;67962;47.310;9.642;2023-05-10T03:21:13;0.40;;;0.30;;
78648;SDS011;67962;47.310;9.642;2023-05-10T03:23:43;1.20;;;0.40;;
78648;SDS011;67962;47.310;9.642;2023-05-10T03:26:17;7.93;;;0.40;;
78648;SDS011;67962;47.310;9.642;2023-05-10T03:28:47;0.30;;;0.28;;
78648;SDS011;67962;47.310;9.642;2023-05-10T03:31:13;0.80;;;0.40;;
78648;SDS011;67962;47.310;9.642;2023-05-10T03:33:49;0.93;;;0.30;;
78648;SDS011;67962;47.310;9.642;2023-05-10T03:36:15;0.82;;;0.35;;
78648;SDS011;67962;47.310;9.642;2023-05-10T03:38:41;1.30;;;0.52;;
78648;SDS011;67962;47.310;9.642;2023-05-10T03:41:07;1.08;;;0.30;;
78648;SDS011;67962;47.310;9.642;2023-05-10T03:43:33;1.95;;;0.40;;
78648;SDS011;67962;47.310;9.642;2023-05-10T03:45:58;2.45;;;0.38;;
78648;SDS011;67962;47.310;9.642;2023-05-10T03:48:27;0.30;;;0.30;;
78648;SDS011;67962;47.310;9.642;2023-05-10T03:50:53;0.20;;;0.20;;
78648;SDS011;67962;47.310;9.642;2023-05-10T03:53:19;0.40;;;0.30;;
78648;SDS011;67962;47.310;9.642;2023-05-10T03:55:45;0.50;;;0.30;;
78648;SDS011;67962;47.310;9.642;2023-05-10T03:58:11;1.00;;;0.50;;
78648;SDS011;67962;47.310;9.642;2023-05-10T04:00:37;0.43;;;0.40;;
78648;SDS011;67962;47.310;9.642;2023-05-10T04:03:08;0.93;;;0.40;;
78648;SDS011;67962;47.310;9.642;2023-05-10T04:05:34;0.40;;;0.30;;
78648;SDS011;67962;47.310;9.642;2023-05-10T04:08:01;3.30;;;0.47;;
78648;SDS011;67962;47.310;9.642;2023-05-10T04:10:27;5.68;;;0.50;;
78648;SDS011;67962;47.310;9.642;2023-05-10T04:12:53;1.77;;;0.40;;
78648;SDS011;67962;47.310;9.642;2023-05-10T04:15:18;1.70;;;0.50;;
78648;SDS011;67962;47.310;9.642;2023-05-10T04:17:44;1.02;;;0.45;;
78648;SDS011;67962;47.310;9.642;2023-05-10T04:20:11;10.07;;;1.00;;
78648;SDS011;67962;47.310;9.642;2023-05-10T04:22:37;11.63;;;0.77;;
78648;SDS011;67962;47.310;9.642;2023-05-10T04:25:02;3.78;;;0.43;;
78648;SDS011;67962;47.310;9.642;2023-05-10T04:27:29;4.82;;;0.45;;
78648;SDS011;67962;47.310;9.642;2023-05-10T04:29:56;1.25;;;0.80;;
78648;SDS011;67962;47.310;9.642;2023-05-10T04:32:22;2.72;;;0.60;;
78648;SDS011;67962;47.310;9.642;2023-05-10T04:34:47;2.15;;;1.10;;
78648;SDS011;67962;47.310;9.642;2023-05-10T04:37:13;1.70;;;0.52;;
78648;SDS011;67962;47.310;9.642;2023-05-10T04:39:39;0.95;;;0.50;;
78648;SDS011;67962;47.310;9.642;2023-05-10T04:42:04;0.95;;;0.50;;
78648;SDS011;67962;47.310;9.642;2023-05-10T04:44:31;0.90;;;0.40;;
78648;SDS011;67962;47.310;9.642;2023-05-10T04:46:57;1.20;;;0.50;;
78648;SDS011;67962;47.310;9.642;2023-05-10T04:49:22;2.72;;;0.60;;
78648;SDS011;67962;47.310;9.642;2023-05-10T04:51:48;0.75;;;0.63;;
78648;SDS011;67962;47.310;9.642;2023-05-10T04:54:14;1.88;;;0.60;;
78648;SDS011;67962;47.310;9.642;2023-05-10T04:56:40;0.82;;;0.50;;
78648;SDS011;67962;47.310;9.642;2023-05-10T04:59:06;1.85;;;0.60;;
78648;SDS011;67962;47.310;9.642;2023-05-10T05:01:31;2.38;;;0.60;;
78648;SDS011;67962;47.310;9.642;2023-05-10T05:03:57;2.35;;;0.70;;
78648;SDS011;67962;47.310;9.642;2023-05-10T05:06:23;1.75;;;0.60;;
78648;SDS011;67962;47.310;9.642;2023-05-10T05:08:50;1.15;;;0.50;;
78648;SDS011;67962;47.310;9.642;2023-05-10T05:11:16;0.95;;;0.40;;
78648;SDS011;67962;47.310;9.642;2023-05-10T05:13:43;0.90;;;0.60;;
78648;SDS011;67962;47.310;9.642;2023-05-10T05:16:09;1.77;;;0.60;;
78648;SDS011;67962;47.310;9.642;2023-05-10T05:18:35;1.08;;;0.40;;
78648;SDS011;67962;47.310;9.642;2023-05-10T05:21:01;2.85;;;0.50;;
78648;SDS011;67962;47.310;9.642;2023-05-10T05:23:27;0.70;;;0.40;;
78648;SDS011;67962;47.310;9.642;2023-05-10T05:25:53;0.30;;;0.30;;
78648;SDS011;67962;47.310;9.642;2023-05-10T05:28:19;8.07;;;0.70;;
78648;SDS011;67962;47.310;9.642;2023-05-10T05:30:45;2.25;;;0.45;;
78648;SDS011;67962;47.310;9.642;2023-05-10T05:33:13;23.65;;;1.23;;
78648;SDS011;67962;47.310;9.642;2023-05-10T05:35:40;1.35;;;0.40;;
78648;SDS011;67962;47.310;9.642;2023-05-10T05:38:06;0.77;;;0.50;;
78648;SDS011;67962;47.310;9.642;2023-05-10T05:40:31;1.63;;;0.55;;
78648;SDS011;67962;47.310;9.642;2023-05-10T05:42:57;1.35;;;0.55;;
78648;SDS011;67962;47.310;9.642;2023-05-10T05:45:23;1.40;;;0.70;;
78648;SDS011;67962;47.310;9.642;2023-05-10T05:47:48;2.60;;;0.60;;
78648;SDS011;67962;47.310;9.642;2023-05-10T05:50:14;14.60;;;1.23;;
78648;SDS011;67962;47.310;9.642;2023-05-10T05:52:40;1.30;;;0.50;;
78648;SDS011;67962;47.310;9.642;2023-05-10T05:55:06;1.00;;;0.50;;
78648;SDS011;67962;47.310;9.642;2023-05-10T05:57:31;0.75;;;0.50;;
78648;SDS011;67962;47.310;9.642;2023-05-10T05:59:57;8.98;;;0.90;;
78648;SDS011;67962;47.310;9.642;2023-05-10T06:02:23;6.45;;;0.60;;
78648;SDS011;67962;47.310;9.642;2023-05-10T06:04:48;0.55;;;0.45;;
78648;SDS011;67962;47.310;9.642;2023-05-10T06:07:15;7.35;;;0.70;;
78648;SDS011;67962;47.310;9.642;2023-05-10T06:09:41;3.70;;;0.63;;
78648;SDS011;67962;47.310;9.642;2023-05-10T06:12:07;6.45;;;0.60;;
78648;SDS011;67962;47.310;9.642;2023-05-10T06:14:32;2.90;;;0.73;;
78648;SDS011;67962;47.310;9.642;2023-05-10T06:16:58;1.08;;;0.45;;
78648;SDS011;67962;47.310;9.642;2023-05-10T06:19:25;1.20;;;0.40;;
78648;SDS011;67962;47.310;9.642;2023-05-10T06:21:51;0.60;;;0.55;;
78648;SDS011;67962;47.310;9.642;2023-05-10T06:24:17;0.47;;;0.30;;
78648;SDS011;67962;47.310;9.642;2023-05-10T06:26:42;1.20;;;0.80;;
78648;SDS011;67962;47.310;9.642;2023-05-10T06:29:08;1.70;;;0.70;;
78648;SDS011;67962;47.310;9.642;2023-05-10T06:31:34;1.98;;;0.93;;
78648;SDS011;67962;47.310;9.642;2023-05-10T06:33:59;5.75;;;1.15;;
78648;SDS011;67962;47.310;9.642;2023-05-10T06:36:25;2.58;;;1.20;;
78648;SDS011;67962;47.310;9.642;2023-05-10T06:38:53;1.75;;;0.90;;
78648;SDS011;67962;47.310;9.642;2023-05-10T06:41:19;1.00;;;0.70;;
78648;SDS011;67962;47.310;9.642;2023-05-10T06:43:45;1.67;;;0.90;;
78648;SDS011;67962;47.310;9.642;2023-05-10T06:46:11;1.38;;;0.90;;
78648;SDS011;67962;47.310;9.642;2023-05-10T06:48:36;2.35;;;1.00;;
78648;SDS011;67962;47.310;9.642;2023-05-10T06:51:02;4.63;;;0.80;;
78648;SDS011;67962;47.310;9.642;2023-05-10T06:53:28;0.95;;;0.80;;
78648;SDS011;67962;47.310;9.642;2023-05-10T06:55:53;1.48;;;0.90;;
78648;SDS011;67962;47.310;9.642;2023-05-10T06:58:19;0.80;;;0.70;;
78648;SDS011;67962;47.310;9.642;2023-05-10T07:00:45;3.50;;;0.85;;
78648;SDS011;67962;47.310;9.642;2023-05-10T07:03:11;4.00;;;2.05;;
78648;SDS011;67962;47.310;9.642;2023-05-10T07:05:37;11.13;;;4.32;;
78648;SDS011;67962;47.310;9.642;2023-05-10T07:08:03;6.03;;;3.08;;
78648;SDS011;67962;47.310;9.642;2023-05-10T07:10:29;4.60;;;2.80;;
78648;SDS011;67962;47.310;9.642;2023-05-10T07:12:54;7.38;;;3.38;;
78648;SDS011;67962;47.310;9.642;2023-05-10T07:15:20;5.57;;;1.70;;
78648;SDS011;67962;47.310;9.642;2023-05-10T07:17:46;1.58;;;1.05;;
78648;SDS011;67962;47.310;9.642;2023-05-10T07:20:12;2.45;;;0.70;;
78648;SDS011;67962;47.310;9.642;2023-05-10T07:22:37;0.95;;;0.57;;
78648;SDS011;67962;47.310;9.642;2023-05-10T07:25:03;1.75;;;0.60;;
78648;SDS011;67962;47.310;9.642;2023-05-10T07:27:29;3.40;;;0.80;;
78648;SDS011;67962;47.310;9.642;2023-05-10T07:29:55;3.00;;;0.88;;
78648;SDS011;67962;47.310;9.642;2023-05-10T07:32:21;1.77;;;0.63;;
78648;SDS011;67962;47.310;9.642;2023-05-10T07:34:47;2.50;;;0.52;;
78648;SDS011;67962;47.310;9.642;2023-05-10T07:37:13;3.55;;;0.63;;
78648;SDS011;67962;47.310;9.642;2023-05-10T07:39:39;3.05;;;0.90;;
78648;SDS011;67962;47.310;9.642;2023-05-10T07:42:04;1.38;;;0.90;;
78648;SDS011;67962;47.310;9.642;2023-05-10T07:44:30;6.30;;;1.20;;
78648;SDS011;67962;47.310;9.642;2023-05-10T07:46:56;2.67;;;0.93;;
78648;SDS011;67962;47.310;9.642;2023-05-10T07:49:22;2.13;;;0.90;;
78648;SDS011;67962;47.310;9.642;2023-05-10T07:51:49;1.23;;;0.73;;
78648;SDS011;67962;47.310;9.642;2023-05-10T07:54:15;2.35;;;0.70;;
78648;SDS011;67962;47.310;9.642;2023-05-10T07:56:40;1.35;;;0.68;;
78648;SDS011;67962;47.310;9.642;2023-05-10T07:59:14;3.63;;;0.70;;
78648;SDS011;67962;47.310;9.642;2023-05-10T08:01:40;2.75;;;1.00;;
78648;SDS011;67962;47.310;9.642;2023-05-10T08:04:07;2.90;;;0.60;;
78648;SDS011;67962;47.310;9.642;2023-05-10T08:06:32;1.20;;;0.60;;
78648;SDS011;67962;47.310;9.642;2023-05-10T08:08:58;0.93;;;0.55;;
78648;SDS011;67962;47.310;9.642;2023-05-10T08:11:24;2.60;;;0.50;;
78648;SDS011;67962;47.310;9.642;2023-05-10T08:13:50;0.40;;;0.40;;
78648;SDS011;67962;47.310;9.642;2023-05-10T08:16:16;3.30;;;0.47;;
78648;SDS011;67962;47.310;9.642;2023-05-10T08:18:42;1.08;;;0.55;;
78648;SDS011;67962;47.310;9.642;2023-05-10T08:21:09;0.60;;;0.50;;
78648;SDS011;67962;47.310;9.642;2023-05-10T08:23:36;1.80;;;0.50;;
78648;SDS011;67962;47.310;9.642;2023-05-10T08:26:02;3.05;;;0.73;;
78648;SDS011;67962;47.310;9.642;2023-05-10T08:28:27;2.80;;;1.30;;
78648;SDS011;67962;47.310;9.642;2023-05-10T08:30:53;1.23;;;0.77;;
78648;SDS011;67962;47.310;9.642;2023-05-10T08:33:19;0.52;;;0.50;;
78648;SDS011;67962;47.310;9.642;2023-05-10T08:35:45;1.75;;;1.10;;
78648;SDS011;67962;47.310;9.642;2023-05-10T08:38:10;1.98;;;1.00;;
78648;SDS011;67962;47.310;9.642;2023-05-10T08:40:37;1.35;;;0.82;;
78648;SDS011;67962;47.310;9.642;2023-05-10T08:43:05;0.95;;;0.52;;
78648;SDS011;67962;47.310;9.642;2023-05-10T08:45:36;1.70;;;0.50;;
78648;SDS011;67962;47.310;9.642;2023-05-10T08:48:07;6.43;;;0.60;;
78648;SDS011;67962;47.310;9.642;2023-05-10T08:50:37;3.28;;;0.65;;
78648;SDS011;67962;47.310;9.642;2023-05-10T08:53:11;3.08;;;0.57;;
78648;SDS011;67962;47.310;9.642;2023-05-10T08:55:39;1.30;;;0.60;;
78648;SDS011;67962;47.310;9.642;2023-05-10T08:58:08;3.63;;;0.40;;
78648;SDS011;67962;47.310;9.642;2023-05-10T09:00:35;1.65;;;0.77;;
78648;SDS011;67962;47.310;9.642;2023-05-10T09:03:02;2.20;;;0.57;;
78648;SDS011;67962;47.310;9.642;2023-05-10T09:05:29;2.15;;;0.60;;
78648;SDS011;67962;47.310;9.642;2023-05-10T09:07:55;1.45;;;0.60;;
78648;SDS011;67962;47.310;9.642;2023-05-10T09:10:21;5.50;;;0.80;;
78648;SDS011;67962;47.310;9.642;2023-05-10T09:12:50;1.95;;;0.70;;
78648;SDS011;67962;47.310;9.642;2023-05-10T09:15:16;2.70;;;1.00;;
78648;SDS011;67962;47.310;9.642;2023-05-10T09:17:44;2.17;;;0.90;;
78648;SDS011;67962;47.310;9.642;2023-05-10T09:20:10;2.80;;;0.85;;
78648;SDS011;67962;47.310;9.642;2023-05-10T09:22:36;0.75;;;0.50;;
78648;SDS011;67962;47.310;9.642;2023-05-10T09:25:06;1.98;;;0.43;;
78648;SDS011;67962;47.310;9.642;2023-05-10T09:27:36;1.10;;;0.40;;
78648;SDS011;67962;47.310;9.642;2023-05-10T09:30:03;1.13;;;0.60;;
78648;SDS011;67962;47.310;9.642;2023-05-10T09:32:37;1.60;;;0.80;;
78648;SDS011;67962;47.310;9.642;2023-05-10T09:35:10;4.40;;;0.80;;
78648;SDS011;67962;47.310;9.642;2023-05-10T09:37:40;1.40;;;0.40;;
78648;SDS011;67962;47.310;9.642;2023-05-10T09:40:11;1.20;;;0.30;;
78648;SDS011;67962;47.310;9.642;2023-05-10T09:42:54;0.93;;;0.30;;
78648;SDS011;67962;47.310;9.642;2023-05-10T09:45:23;0.50;;;0.30;;
78648;SDS011;67962;47.310;9.642;2023-05-10T09:47:50;0.60;;;0.40;;
78648;SDS011;67962;47.310;9.642;2023-05-10T09:50:16;2.80;;;0.45;;
78648;SDS011;67962;47.310;9.642;2023-05-10T09:52:51;2.97;;;0.35;;
78648;SDS011;67962;47.310;9.642;2023-05-10T09:55:22;0.60;;;0.50;;
78648;SDS011;67962;47.310;9.642;2023-05-10T09:57:49;3.15;;;0.80;;
78648;SDS011;67962;47.310;9.642;2023-05-10T10:00:24;0.55;;;0.40;;
78648;SDS011;67962;47.310;9.642;2023-05-10T10:02:56;0.77;;;0.38;;
78648;SDS011;67962;47.310;9.642;2023-05-10T10:05:30;1.05;;;0.38;;
78648;SDS011;67962;47.310;9.642;2023-05-10T10:08:00;0.90;;;0.47;;
78648;SDS011;67962;47.310;9.642;2023-05-10T10:10:30;2.65;;;0.55;;
78648;SDS011;67962;47.310;9.642;2023-05-10T10:12:57;2.97;;;0.75;;
78648;SDS011;67962;47.310;9.642;2023-05-10T10:15:23;1.45;;;0.55;;
78648;SDS011;67962;47.310;9.642;2023-05-10T10:17:50;0.93;;;0.57;;
78648;SDS011;67962;47.310;9.642;2023-05-10T10:20:17;3.17;;;0.50;;
78648;SDS011;67962;47.310;9.642;2023-05-10T10:22:44;9.75;;;0.85;;
78648;SDS011;67962;47.310;9.642;2023-05-10T10:25:12;13.85;;;1.13;;
78648;SDS011;67962;47.310;9.642;2023-05-10T10:27:49;2.55;;;0.57;;
78648;SDS011;67962;47.310;9.642;2023-05-10T10:30:39;1.30;;;0.47;;
78648;SDS011;67962;47.310;9.642;2023-05-10T10:36:05;6.85;;;0.77;;
78648;SDS011;67962;47.310;9.642;2023-05-10T10:49:50;2.08;;;0.50;;
78648;SDS011;67962;47.310;9.642;2023-05-10T11:02:47;3.70;;;0.60;;
78648;SDS011;67962;47.310;9.642;2023-05-10T11:05:34;0.68;;;0.50;;
78648;SDS011;67962;47.310;9.642;2023-05-10T11:08:25;0.82;;;0.45;;
78648;SDS011;67962;47.310;9.642;2023-05-10T11:19:04;0.80;;;0.50;;
78648;SDS011;67962;47.310;9.642;2023-05-10T11:21:48;0.70;;;0.40;;
78648;SDS011;67962;47.310;9.642;2023-05-10T11:24:16;0.73;;;0.50;;
78648;SDS011;67962;47.310;9.642;2023-05-10T11:26:46;0.38;;;0.30;;
78648;SDS011;67962;47.310;9.642;2023-05-10T11:29:14;2.20;;;0.50;;
78648;SDS011;67962;47.310;9.642;2023-05-10T11:31:44;0.75;;;0.40;;
78648;SDS011;67962;47.310;9.642;2023-05-10T11:34:11;0.93;;;0.52;;
78648;SDS011;67962;47.310;9.642;2023-05-10T11:36:50;0.50;;;0.40;;
78648;SDS011;67962;47.310;9.642;2023-05-10T11:39:16;1.20;;;0.43;;
78648;SDS011;67962;47.310;9.642;2023-05-10T11:41:42;0.25;;;0.25;;
78648;SDS011;67962;47.310;9.642;2023-05-10T11:44:08;0.57;;;0.22;;
78648;SDS011;67962;47.310;9.642;2023-05-10T11:46:34;0.50;;;0.30;;
78648;SDS011;67962;47.310;9.642;2023-05-10T11:49:01;0.40;;;0.30;;
78648;SDS011;67962;47.310;9.642;2023-05-10T11:51:29;0.30;;;0.20;;
78648;SDS011;67962;47.310;9.642;2023-05-10T11:53:57;0.93;;;0.40;;
78648;SDS011;67962;47.310;9.642;2023-05-10T11:56:23;0.52;;;0.30;;
78648;SDS011;67962;47.310;9.642;2023-05-10T11:58:54;1.58;;;0.38;;
78648;SDS011;67962;47.310;9.642;2023-05-10T12:01:22;1.02;;;0.50;;
78648;SDS011;67962;47.310;9.642;2023-05-10T12:03:49;0.65;;;0.50;;
78648;SDS011;67962;47.310;9.642;2023-05-10T12:06:17;0.88;;;0.30;;
78648;SDS011;67962;47.310;9.642;2023-05-10T12:08:44;0.85;;;0.47;;
78648;SDS011;67962;47.310;9.642;2023-05-10T12:11:17;1.38;;;0.30;;
78648;SDS011;67962;47.310;9.642;2023-05-10T12:13:43;2.40;;;0.50;;
78648;SDS011;67962;47.310;9.642;2023-05-10T12:16:16;4.40;;;0.57;;
78648;SDS011;67962;47.310;9.642;2023-05-10T12:18:43;3.60;;;0.68;;
78648;SDS011;67962;47.310;9.642;2023-05-10T12:21:10;3.60;;;0.70;;
78648;SDS011;67962;47.310;9.642;2023-05-10T12:23:37;2.70;;;0.65;;
78648;SDS011;67962;47.310;9.642;2023-05-10T12:26:03;0.65;;;0.40;;
78648;SDS011;67962;47.310;9.642;2023-05-10T12:28:30;0.40;;;0.30;;
78648;SDS011;67962;47.310;9.642;2023-05-10T12:30:59;0.60;;;0.30;;
78648;SDS011;67962;47.310;9.642;2023-05-10T12:33:26;2.10;;;0.40;;
78648;SDS011;67962;47.310;9.642;2023-05-10T12:35:53;0.30;;;0.28;;
78648;SDS011;67962;47.310;9.642;2023-05-10T12:40:58;1.15;;;0.38;;
78648;SDS011;67962;47.310;9.642;2023-05-10T12:43:25;4.38;;;0.40;;
78648;SDS011;67962;47.310;9.642;2023-05-10T12:45:51;2.85;;;0.60;;
78648;SDS011;67962;47.310;9.642;2023-05-10T12:48:17;11.38;;;1.23;;
78648;SDS011;67962;47.310;9.642;2023-05-10T12:50:43;7.68;;;3.00;;
78648;SDS011;67962;47.310;9.642;2023-05-10T12:53:09;12.25;;;1.40;;
78648;SDS011;67962;47.310;9.642;2023-05-10T12:55:34;2.95;;;0.80;;
78648;SDS011;67962;47.310;9.642;2023-05-10T12:58:00;4.68;;;0.55;;
78648;SDS011;67962;47.310;9.642;2023-05-10T13:00:26;1.73;;;0.50;;
78648;SDS011;67962;47.310;9.642;2023-05-10T13:02:51;1.45;;;0.40;;
78648;SDS011;67962;47.310;9.642;2023-05-10T13:05:18;2.20;;;0.40;;
78648;SDS011;67962;47.310;9.642;2023-05-10T13:07:43;5.57;;;0.47;;
78648;SDS011;67962;47.310;9.642;2023-05-10T13:10:09;2.85;;;0.70;;
78648;SDS011;67962;47.310;9.642;2023-05-10T13:12:35;6.78;;;1.20;;
78648;SDS011;67962;47.310;9.642;2023-05-10T13:15:01;2.13;;;0.60;;
78648;SDS011;67962;47.310;9.642;2023-05-10T13:17:28;1.25;;;0.50;;
78648;SDS011;67962;47.310;9.642;2023-05-10T13:19:54;2.10;;;0.52;;
78648;SDS011;67962;47.310;9.642;2023-05-10T13:22:20;1.88;;;0.60;;
78648;SDS011;67962;47.310;9.642;2023-05-10T13:24:45;1.73;;;0.70;;
78648;SDS011;67962;47.310;9.642;2023-05-10T13:27:11;2.25;;;0.50;;
78648;SDS011;67962;47.310;9.642;2023-05-10T13:29:37;2.42;;;0.57;;
78648;SDS011;67962;47.310;9.642;2023-05-10T13:32:02;0.40;;;0.40;;
78648;SDS011;67962;47.310;9.642;2023-05-10T13:34:28;1.08;;;0.70;;
78648;SDS011;67962;47.310;9.642;2023-05-10T13:36:54;1.35;;;0.43;;
78648;SDS011;67962;47.310;9.642;2023-05-10T13:39:21;0.68;;;0.50;;
78648;SDS011;67962;47.310;9.642;2023-05-10T13:41:47;6.63;;;0.75;;
78648;SDS011;67962;47.310;9.642;2023-05-10T13:44:13;1.50;;;0.45;;
78648;SDS011;67962;47.310;9.642;2023-05-10T13:46:40;1.15;;;0.70;;
78648;SDS011;67962;47.310;9.642;2023-05-10T13:49:08;2.33;;;0.85;;
78648;SDS011;67962;47.310;9.642;2023-05-10T13:51:34;2.05;;;1.00;;
78648;SDS011;67962;47.310;9.642;2023-05-10T13:54:00;1.90;;;0.88;;
78648;SDS011;67962;47.310;9.642;2023-05-10T13:56:26;2.58;;;0.82;;
78648;SDS011;67962;47.310;9.642;2023-05-10T13:58:52;2.38;;;0.80;;
78648;SDS011;67962;47.310;9.642;2023-05-10T14:01:18;3.25;;;0.73;;
78648;SDS011;67962;47.310;9.642;2023-05-10T14:03:44;1.17;;;0.47;;
78648;SDS011;67962;47.310;9.642;2023-05-10T14:06:10;0.60;;;0.40;;
78648;SDS011;67962;47.310;9.642;2023-05-10T14:08:35;0.60;;;0.50;;
78648;SDS011;67962;47.310;9.642;2023-05-10T14:11:01;2.28;;;0.32;;
78648;SDS011;67962;47.310;9.642;2023-05-10T14:13:27;3.13;;;0.70;;
78648;SDS011;67962;47.310;9.642;2023-05-10T14:15:54;2.78;;;0.90;;
78648;SDS011;67962;47.310;9.642;2023-05-10T14:18:20;1.35;;;0.80;;
78648;SDS011;67962;47.310;9.642;2023-05-10T14:20:46;19.10;;;1.33;;
78648;SDS011;67962;47.310;9.642;2023-05-10T14:23:12;9.65;;;0.98;;
78648;SDS011;67962;47.310;9.642;2023-05-10T14:25:40;2.90;;;0.70;;
78648;SDS011;67962;47.310;9.642;2023-05-10T14:28:05;3.65;;;0.80;;
78648;SDS011;67962;47.310;9.642;2023-05-10T14:30:31;4.05;;;0.70;;
78648;SDS011;67962;47.310;9.642;2023-05-10T14:32:59;0.80;;;0.60;;
78648;SDS011;67962;47.310;9.642;2023-05-10T14:35:26;1.40;;;0.50;;
78648;SDS011;67962;47.310;9.642;2023-05-10T14:37:52;1.23;;;0.60;;
78648;SDS011;67962;47.310;9.642;2023-05-10T14:40:18;2.45;;;0.50;;
78648;SDS011;67962;47.310;9.642;2023-05-10T14:42:44;4.53;;;0.70;;
78648;SDS011;67962;47.310;9.642;2023-05-10T14:45:10;0.70;;;0.63;;
78648;SDS011;67962;47.310;9.642;2023-05-10T14:47:37;1.15;;;0.60;;
78648;SDS011;67962;47.310;9.642;2023-05-10T14:50:02;1.15;;;0.50;;
78648;SDS011;67962;47.310;9.642;2023-05-10T14:52:28;1.05;;;0.50;;
78648;SDS011;67962;47.310;9.642;2023-05-10T14:54:54;1.35;;;0.60;;
78648;SDS011;67962;47.310;9.642;2023-05-10T14:57:20;0.93;;;0.55;;
78648;SDS011;67962;47.310;9.642;2023-05-10T14:59:45;5.28;;;0.73;;
78648;SDS011;67962;47.310;9.642;2023-05-10T15:02:11;1.67;;;0.50;;
78648;SDS011;67962;47.310;9.642;2023-05-10T15:04:37;2.47;;;0.80;;
78648;SDS011;67962;47.310;9.642;2023-05-10T15:07:03;1.73;;;0.55;;
78648;SDS011;67962;47.310;9.642;2023-05-10T15:09:29;0.82;;;0.50;;
78648;SDS011;67962;47.310;9.642;2023-05-10T15:11:55;1.25;;;0.60;;
78648;SDS011;67962;47.310;9.642;2023-05-10T15:14:21;1.58;;;0.70;;
78648;SDS011;67962;47.310;9.642;2023-05-10T15:16:47;4.65;;;0.70;;
78648;SDS011;67962;47.310;9.642;2023-05-10T15:19:13;0.77;;;0.50;;
78648;SDS011;67962;47.310;9.642;2023-05-10T15:21:38;11.32;;;1.00;;
78648;SDS011;67962;47.310;9.642;2023-05-10T15:24:07;7.03;;;0.85;;
78648;SDS011;67962;47.310;9.642;2023-05-10T15:26:33;8.23;;;0.82;;
78648;SDS011;67962;47.310;9.642;2023-05-10T15:28:59;4.50;;;0.80;;
78648;SDS011;67962;47.310;9.642;2023-05-10T15:31:25;2.38;;;1.00;;
78648;SDS011;67962;47.310;9.642;2023-05-10T15:33:53;1.27;;;0.68;;
78648;SDS011;67962;47.310;9.642;2023-05-10T15:36:23;5.70;;;1.25;;
78648;SDS011;67962;47.310;9.642;2023-05-10T15:38:49;2.17;;;0.70;;
78648;SDS011;67962;47.310;9.642;2023-05-10T15:41:14;2.83;;;0.90;;